sensor_id;sensor_type;location;lat;lon;timestamp;temperature;humidity
66722;SHT31;53633;49.932;10.884;2023-08-24T00:01:43;19.60;74.80
66722;SHT31;53633;49.932;10.884;2023-08-24T00:04:09;19.58;75.02
66722;SHT31;53633;49.932;10.884;2023-08-24T00:06:36;19.57;74.99
66722;SHT31;53633;49.932;10.884;2023-08-24T00:09:02;19.51;75.26
66722;SHT31;53633;49.932;10.884;2023-08-24T00:11:30;19.43;75.46
66722;SHT31;53633;49.932;10.884;2023-08-24T00:13:57;19.36;75.65
66722;SHT31;53633;49.932;10.884;2023-08-24T00:16:24;19.30;76.04
66722;SHT31;53633;49.932;10.884;2023-08-24T00:18:50;19.29;76.17
66722;SHT31;53633;49.932;10.884;2023-08-24T00:21:17;19.27;76.35
66722;SHT31;53633;49.932;10.884;2023-08-24T00:23:44;19.19;76.44
66722;SHT31;53633;49.932;10.884;2023-08-24T00:26:11;19.16;76.78
66722;SHT31;53633;49.932;10.884;2023-08-24T00:28:39;19.13;77.00
66722;SHT31;53633;49.932;10.884;2023-08-24T00:31:05;19.13;77.04
66722;SHT31;53633;49.932;10.884;2023-08-24T00:33:32;19.16;77.20
66722;SHT31;53633;49.932;10.884;2023-08-24T00:36:00;19.20;77.40
66722;SHT31;53633;49.932;10.884;2023-08-24T00:38:27;19.24;77.56
66722;SHT31;53633;49.932;10.884;2023-08-24T00:40:53;19.20;77.28
66722;SHT31;53633;49.932;10.884;2023-08-24T00:43:20;19.18;77.37
66722;SHT31;53633;49.932;10.884;2023-08-24T00:45:48;19.13;77.33
66722;SHT31;53633;49.932;10.884;2023-08-24T00:48:16;19.15;77.65
66722;SHT31;53633;49.932;10.884;2023-08-24T00:50:42;19.22;77.42
66722;SHT31;53633;49.932;10.884;2023-08-24T00:53:10;19.27;77.41
66722;SHT31;53633;49.932;10.884;2023-08-24T00:55:36;19.34;76.93
66722;SHT31;53633;49.932;10.884;2023-08-24T00:58:03;19.34;77.06
66722;SHT31;53633;49.932;10.884;2023-08-24T01:00:30;19.39;76.82
66722;SHT31;53633;49.932;10.884;2023-08-24T01:02:58;19.31;77.01
66722;SHT31;53633;49.932;10.884;2023-08-24T01:05:25;19.29;77.29
66722;SHT31;53633;49.932;10.884;2023-08-24T01:07:52;19.26;77.38
66722;SHT31;53633;49.932;10.884;2023-08-24T01:10:19;19.22;77.68
66722;SHT31;53633;49.932;10.884;2023-08-24T01:12:55;19.22;77.74
66722;SHT31;53633;49.932;10.884;2023-08-24T01:15:31;19.20;77.72
66722;SHT31;53633;49.932;10.884;2023-08-24T01:18:04;19.16;77.95
66722;SHT31;53633;49.932;10.884;2023-08-24T01:20:34;19.18;78.10
66722;SHT31;53633;49.932;10.884;2023-08-24T01:23:09;19.26;77.78
66722;SHT31;53633;49.932;10.884;2023-08-24T01:25:45;19.29;77.38
66722;SHT31;53633;49.932;10.884;2023-08-24T01:28:16;19.18;77.54
66722;SHT31;53633;49.932;10.884;2023-08-24T01:30:44;19.19;77.48
66722;SHT31;53633;49.932;10.884;2023-08-24T01:33:10;19.06;77.37
66722;SHT31;53633;49.932;10.884;2023-08-24T01:35:37;19.06;77.61
66722;SHT31;53633;49.932;10.884;2023-08-24T01:38:05;19.03;77.81
66722;SHT31;53633;49.932;10.884;2023-08-24T01:40:39;19.08;77.51
66722;SHT31;53633;49.932;10.884;2023-08-24T01:43:09;19.01;77.78
66722;SHT31;53633;49.932;10.884;2023-08-24T01:45:39;18.96;78.03
66722;SHT31;53633;49.932;10.884;2023-08-24T01:48:09;18.96;78.30
66722;SHT31;53633;49.932;10.884;2023-08-24T01:50:37;19.01;77.87
66722;SHT31;53633;49.932;10.884;2023-08-24T01:53:04;19.10;77.59
66722;SHT31;53633;49.932;10.884;2023-08-24T01:55:31;19.08;77.44
66722;SHT31;53633;49.932;10.884;2023-08-24T01:57:58;18.99;77.43
66722;SHT31;53633;49.932;10.884;2023-08-24T02:00:24;18.87;77.99
66722;SHT31;53633;49.932;10.884;2023-08-24T02:02:52;18.76;78.42
66722;SHT31;53633;49.932;10.884;2023-08-24T02:05:19;18.71;78.52
66722;SHT31;53633;49.932;10.884;2023-08-24T02:07:46;18.69;78.71
66722;SHT31;53633;49.932;10.884;2023-08-24T02:10:13;18.67;78.73
66722;SHT31;53633;49.932;10.884;2023-08-24T02:12:40;18.68;78.71
66722;SHT31;53633;49.932;10.884;2023-08-24T02:15:07;18.64;79.08
66722;SHT31;53633;49.932;10.884;2023-08-24T02:17:34;18.58;79.16
66722;SHT31;53633;49.932;10.884;2023-08-24T02:20:02;18.57;79.20
66722;SHT31;53633;49.932;10.884;2023-08-24T02:22:29;18.54;79.36
66722;SHT31;53633;49.932;10.884;2023-08-24T02:24:56;18.51;79.36
66722;SHT31;53633;49.932;10.884;2023-08-24T02:27:23;18.57;79.22
66722;SHT31;53633;49.932;10.884;2023-08-24T02:29:49;18.58;78.89
66722;SHT31;53633;49.932;10.884;2023-08-24T02:32:16;18.51;78.85
66722;SHT31;53633;49.932;10.884;2023-08-24T02:34:43;18.47;78.82
66722;SHT31;53633;49.932;10.884;2023-08-24T02:37:11;18.48;78.68
66722;SHT31;53633;49.932;10.884;2023-08-24T02:39:37;18.50;78.78
66722;SHT31;53633;49.932;10.884;2023-08-24T02:42:05;18.48;78.56
66722;SHT31;53633;49.932;10.884;2023-08-24T02:44:31;18.44;78.40
66722;SHT31;53633;49.932;10.884;2023-08-24T02:46:58;18.36;78.77
66722;SHT31;53633;49.932;10.884;2023-08-24T02:49:25;18.33;78.63
66722;SHT31;53633;49.932;10.884;2023-08-24T02:51:52;18.30;78.89
66722;SHT31;53633;49.932;10.884;2023-08-24T02:54:20;18.27;79.01
66722;SHT31;53633;49.932;10.884;2023-08-24T02:56:46;18.23;78.95
66722;SHT31;53633;49.932;10.884;2023-08-24T02:59:13;18.16;79.21
66722;SHT31;53633;49.932;10.884;2023-08-24T03:01:40;18.20;78.95
66722;SHT31;53633;49.932;10.884;2023-08-24T03:04:07;18.17;79.18
66722;SHT31;53633;49.932;10.884;2023-08-24T03:06:33;18.26;79.22
66722;SHT31;53633;49.932;10.884;2023-08-24T03:09:00;18.26;79.03
66722;SHT31;53633;49.932;10.884;2023-08-24T03:11:28;18.22;78.90
66722;SHT31;53633;49.932;10.884;2023-08-24T03:13:55;18.17;79.11
66722;SHT31;53633;49.932;10.884;2023-08-24T03:16:22;18.16;79.21
66722;SHT31;53633;49.932;10.884;2023-08-24T03:18:48;18.07;79.32
66722;SHT31;53633;49.932;10.884;2023-08-24T03:21:15;17.96;79.47
66722;SHT31;53633;49.932;10.884;2023-08-24T03:23:42;17.88;79.94
66722;SHT31;53633;49.932;10.884;2023-08-24T03:26:08;17.89;80.08
66722;SHT31;53633;49.932;10.884;2023-08-24T03:28:36;17.89;80.23
66722;SHT31;53633;49.932;10.884;2023-08-24T03:31:03;17.88;80.31
66722;SHT31;53633;49.932;10.884;2023-08-24T03:33:30;17.85;80.71
66722;SHT31;53633;49.932;10.884;2023-08-24T03:35:56;17.83;80.75
66722;SHT31;53633;49.932;10.884;2023-08-24T03:38:23;17.86;80.61
66722;SHT31;53633;49.932;10.884;2023-08-24T03:40:50;17.85;80.65
66722;SHT31;53633;49.932;10.884;2023-08-24T03:43:16;17.86;80.41
66722;SHT31;53633;49.932;10.884;2023-08-24T03:45:59;17.82;80.41
66722;SHT31;53633;49.932;10.884;2023-08-24T03:48:26;17.79;80.67
66722;SHT31;53633;49.932;10.884;2023-08-24T03:50:54;17.83;80.58
66722;SHT31;53633;49.932;10.884;2023-08-24T03:53:20;17.82;80.23
66722;SHT31;53633;49.932;10.884;2023-08-24T03:55:47;17.77;79.92
66722;SHT31;53633;49.932;10.884;2023-08-24T03:58:14;17.78;79.86
66722;SHT31;53633;49.932;10.884;2023-08-24T04:00:41;17.83;80.10
66722;SHT31;53633;49.932;10.884;2023-08-24T04:03:09;17.85;79.58
66722;SHT31;53633;49.932;10.884;2023-08-24T04:05:35;17.82;79.64
66722;SHT31;53633;49.932;10.884;2023-08-24T04:08:03;17.75;79.96
66722;SHT31;53633;49.932;10.884;2023-08-24T04:10:30;17.72;80.21
66722;SHT31;53633;49.932;10.884;2023-08-24T04:12:57;17.69;80.32
66722;SHT31;53633;49.932;10.884;2023-08-24T04:15:23;17.75;80.04
66722;SHT31;53633;49.932;10.884;2023-08-24T04:17:50;17.81;79.57
66722;SHT31;53633;49.932;10.884;2023-08-24T04:20:19;17.72;79.62
66722;SHT31;53633;49.932;10.884;2023-08-24T04:22:45;17.68;79.87
66722;SHT31;53633;49.932;10.884;2023-08-24T04:25:12;17.74;79.73
66722;SHT31;53633;49.932;10.884;2023-08-24T04:27:38;17.78;79.43
66722;SHT31;53633;49.932;10.884;2023-08-24T04:30:06;17.85;79.02
66722;SHT31;53633;49.932;10.884;2023-08-24T04:32:33;17.89;78.79
66722;SHT31;53633;49.932;10.884;2023-08-24T04:35:00;17.89;78.79
66722;SHT31;53633;49.932;10.884;2023-08-24T04:37:28;17.93;78.83
66722;SHT31;53633;49.932;10.884;2023-08-24T04:39:55;17.98;78.68
66722;SHT31;53633;49.932;10.884;2023-08-24T04:42:21;18.06;78.33
66722;SHT31;53633;49.932;10.884;2023-08-24T04:44:50;18.05;78.45
66722;SHT31;53633;49.932;10.884;2023-08-24T04:47:17;18.05;78.20
66722;SHT31;53633;49.932;10.884;2023-08-24T04:49:43;18.12;78.21
66722;SHT31;53633;49.932;10.884;2023-08-24T04:52:10;18.20;78.14
66722;SHT31;53633;49.932;10.884;2023-08-24T04:54:38;18.30;77.80
66722;SHT31;53633;49.932;10.884;2023-08-24T04:57:05;18.44;77.49
66722;SHT31;53633;49.932;10.884;2023-08-24T04:59:31;18.60;77.12
66722;SHT31;53633;49.932;10.884;2023-08-24T05:01:58;18.71;76.99
66722;SHT31;53633;49.932;10.884;2023-08-24T05:04:25;18.79;77.04
66722;SHT31;53633;49.932;10.884;2023-08-24T05:06:51;18.92;77.01
66722;SHT31;53633;49.932;10.884;2023-08-24T05:09:18;19.16;76.32
66722;SHT31;53633;49.932;10.884;2023-08-24T05:11:46;19.29;75.89
66722;SHT31;53633;49.932;10.884;2023-08-24T05:14:13;19.40;76.03
66722;SHT31;53633;49.932;10.884;2023-08-24T05:16:39;19.53;75.91
66722;SHT31;53633;49.932;10.884;2023-08-24T05:19:06;19.63;75.65
66722;SHT31;53633;49.932;10.884;2023-08-24T05:21:33;19.73;75.48
66722;SHT31;53633;49.932;10.884;2023-08-24T05:24:00;19.91;74.91
66722;SHT31;53633;49.932;10.884;2023-08-24T05:26:26;20.15;74.69
66722;SHT31;53633;49.932;10.884;2023-08-24T05:28:54;20.66;73.78
66722;SHT31;53633;49.932;10.884;2023-08-24T05:31:21;21.29;71.90
66722;SHT31;53633;49.932;10.884;2023-08-24T05:33:48;21.87;70.41
66722;SHT31;53633;49.932;10.884;2023-08-24T05:36:14;22.27;69.42
66722;SHT31;53633;49.932;10.884;2023-08-24T05:38:41;22.86;67.98
66722;SHT31;53633;49.932;10.884;2023-08-24T05:41:25;23.57;65.89
66722;SHT31;53633;49.932;10.884;2023-08-24T05:43:52;24.03;64.27
66722;SHT31;53633;49.932;10.884;2023-08-24T05:46:20;24.45;63.10
66722;SHT31;53633;49.932;10.884;2023-08-24T05:48:46;25.02;61.63
66722;SHT31;53633;49.932;10.884;2023-08-24T05:51:13;25.36;60.69
66722;SHT31;53633;49.932;10.884;2023-08-24T05:53:40;25.85;59.42
66722;SHT31;53633;49.932;10.884;2023-08-24T05:56:07;25.80;59.40
66722;SHT31;53633;49.932;10.884;2023-08-24T05:58:33;26.09;58.81
66722;SHT31;53633;49.932;10.884;2023-08-24T06:01:00;26.29;58.41
66722;SHT31;53633;49.932;10.884;2023-08-24T06:03:28;25.93;59.59
66722;SHT31;53633;49.932;10.884;2023-08-24T06:06:01;25.13;61.12
66722;SHT31;53633;49.932;10.884;2023-08-24T06:08:28;24.27;64.28
66722;SHT31;53633;49.932;10.884;2023-08-24T06:10:54;23.93;64.97
66722;SHT31;53633;49.932;10.884;2023-08-24T06:13:21;23.65;65.80
66722;SHT31;53633;49.932;10.884;2023-08-24T06:15:48;23.31;67.28
66722;SHT31;53633;49.932;10.884;2023-08-24T06:18:15;22.92;68.92
66722;SHT31;53633;49.932;10.884;2023-08-24T06:20:43;22.55;70.17
66722;SHT31;53633;49.932;10.884;2023-08-24T06:23:09;22.90;69.28
66722;SHT31;53633;49.932;10.884;2023-08-24T06:25:36;23.78;67.48
66722;SHT31;53633;49.932;10.884;2023-08-24T06:28:04;24.61;65.09
66722;SHT31;53633;49.932;10.884;2023-08-24T06:30:44;25.38;62.55
66722;SHT31;53633;49.932;10.884;2023-08-24T06:33:11;24.90;63.62
66722;SHT31;53633;49.932;10.884;2023-08-24T06:35:38;24.55;64.61
66722;SHT31;53633;49.932;10.884;2023-08-24T06:38:06;24.20;65.54
66722;SHT31;53633;49.932;10.884;2023-08-24T06:40:33;24.64;64.84
66722;SHT31;53633;49.932;10.884;2023-08-24T06:42:59;25.00;64.14
66722;SHT31;53633;49.932;10.884;2023-08-24T06:45:26;25.38;63.03
66722;SHT31;53633;49.932;10.884;2023-08-24T06:47:53;25.67;62.83
66722;SHT31;53633;49.932;10.884;2023-08-24T06:50:20;24.90;64.58
66722;SHT31;53633;49.932;10.884;2023-08-24T06:52:47;24.72;64.63
66722;SHT31;53633;49.932;10.884;2023-08-24T06:55:15;24.54;64.99
66722;SHT31;53633;49.932;10.884;2023-08-24T06:57:41;24.02;66.46
66722;SHT31;53633;49.932;10.884;2023-08-24T07:00:09;24.03;66.25
66722;SHT31;53633;49.932;10.884;2023-08-24T07:02:36;23.70;67.11
66722;SHT31;53633;49.932;10.884;2023-08-24T07:05:03;24.24;66.54
66722;SHT31;53633;49.932;10.884;2023-08-24T07:07:30;24.02;67.38
66722;SHT31;53633;49.932;10.884;2023-08-24T07:09:56;24.33;66.13
66722;SHT31;53633;49.932;10.884;2023-08-24T07:12:25;24.54;65.52
66722;SHT31;53633;49.932;10.884;2023-08-24T07:14:51;24.61;65.70
66722;SHT31;53633;49.932;10.884;2023-08-24T07:17:18;24.65;64.74
66722;SHT31;53633;49.932;10.884;2023-08-24T07:19:45;24.57;65.22
66722;SHT31;53633;49.932;10.884;2023-08-24T07:22:12;24.41;66.17
66722;SHT31;53633;49.932;10.884;2023-08-24T07:24:38;25.63;63.52
66722;SHT31;53633;49.932;10.884;2023-08-24T07:27:09;25.91;62.52
66722;SHT31;53633;49.932;10.884;2023-08-24T07:29:37;25.48;62.49
66722;SHT31;53633;49.932;10.884;2023-08-24T07:32:04;25.54;62.89
66722;SHT31;53633;49.932;10.884;2023-08-24T07:34:31;25.17;63.66
66722;SHT31;53633;49.932;10.884;2023-08-24T07:36:58;25.31;63.34
66722;SHT31;53633;49.932;10.884;2023-08-24T07:39:25;26.13;61.62
66722;SHT31;53633;49.932;10.884;2023-08-24T07:42:05;26.30;61.73
66722;SHT31;53633;49.932;10.884;2023-08-24T07:44:32;27.06;59.19
66722;SHT31;53633;49.932;10.884;2023-08-24T07:47:00;27.23;58.86
66722;SHT31;53633;49.932;10.884;2023-08-24T07:49:27;28.21;56.42
66722;SHT31;53633;49.932;10.884;2023-08-24T07:51:53;27.88;57.98
66722;SHT31;53633;49.932;10.884;2023-08-24T07:54:20;28.18;56.91
66722;SHT31;53633;49.932;10.884;2023-08-24T07:56:47;28.76;54.97
66722;SHT31;53633;49.932;10.884;2023-08-24T07:59:14;29.01;54.53
66722;SHT31;53633;49.932;10.884;2023-08-24T08:01:40;28.99;54.75
66722;SHT31;53633;49.932;10.884;2023-08-24T08:04:08;29.20;53.66
66722;SHT31;53633;49.932;10.884;2023-08-24T08:06:35;29.56;52.30
66722;SHT31;53633;49.932;10.884;2023-08-24T08:09:02;29.35;52.89
66722;SHT31;53633;49.932;10.884;2023-08-24T08:11:29;29.35;53.70
66722;SHT31;53633;49.932;10.884;2023-08-24T08:13:55;29.62;52.90
66722;SHT31;53633;49.932;10.884;2023-08-24T08:16:22;29.73;51.30
66722;SHT31;53633;49.932;10.884;2023-08-24T08:18:49;29.92;51.75
66722;SHT31;53633;49.932;10.884;2023-08-24T08:21:17;30.47;50.69
66722;SHT31;53633;49.932;10.884;2023-08-24T08:23:47;30.06;52.14
66722;SHT31;53633;49.932;10.884;2023-08-24T08:26:15;30.37;50.78
66722;SHT31;53633;49.932;10.884;2023-08-24T08:28:42;30.47;49.34
66722;SHT31;53633;49.932;10.884;2023-08-24T08:31:09;30.69;49.08
66722;SHT31;53633;49.932;10.884;2023-08-24T08:33:35;30.89;49.12
66722;SHT31;53633;49.932;10.884;2023-08-24T08:36:02;30.82;48.90
66722;SHT31;53633;49.932;10.884;2023-08-24T08:38:30;30.89;49.28
66722;SHT31;53633;49.932;10.884;2023-08-24T08:41:02;31.43;48.62
66722;SHT31;53633;49.932;10.884;2023-08-24T08:43:30;31.50;48.48
66722;SHT31;53633;49.932;10.884;2023-08-24T08:45:58;31.09;50.24
66722;SHT31;53633;49.932;10.884;2023-08-24T08:48:25;30.58;50.05
66722;SHT31;53633;49.932;10.884;2023-08-24T08:50:52;30.44;51.20
66722;SHT31;53633;49.932;10.884;2023-08-24T08:53:21;30.86;49.77
66722;SHT31;53633;49.932;10.884;2023-08-24T08:55:51;30.59;50.20
66722;SHT31;53633;49.932;10.884;2023-08-24T08:58:19;30.16;50.31
66722;SHT31;53633;49.932;10.884;2023-08-24T09:00:47;29.90;51.23
66722;SHT31;53633;49.932;10.884;2023-08-24T09:03:17;29.76;51.46
66722;SHT31;53633;49.932;10.884;2023-08-24T09:05:44;29.89;51.55
66722;SHT31;53633;49.932;10.884;2023-08-24T09:08:11;29.35;52.80
66722;SHT31;53633;49.932;10.884;2023-08-24T09:10:38;29.31;53.04
66722;SHT31;53633;49.932;10.884;2023-08-24T09:13:06;29.62;53.34
66722;SHT31;53633;49.932;10.884;2023-08-24T09:15:35;30.25;53.06
66722;SHT31;53633;49.932;10.884;2023-08-24T09:18:02;31.02;51.11
66722;SHT31;53633;49.932;10.884;2023-08-24T09:20:29;30.93;51.48
66722;SHT31;53633;49.932;10.884;2023-08-24T09:22:57;31.03;51.41
66722;SHT31;53633;49.932;10.884;2023-08-24T09:25:23;30.99;51.09
66722;SHT31;53633;49.932;10.884;2023-08-24T09:27:56;31.62;50.15
66722;SHT31;53633;49.932;10.884;2023-08-24T09:30:28;31.99;49.32
66722;SHT31;53633;49.932;10.884;2023-08-24T09:32:55;32.02;49.45
66722;SHT31;53633;49.932;10.884;2023-08-24T09:35:22;32.68;47.66
66722;SHT31;53633;49.932;10.884;2023-08-24T09:37:49;32.73;47.63
66722;SHT31;53633;49.932;10.884;2023-08-24T09:40:24;32.87;47.52
66722;SHT31;53633;49.932;10.884;2023-08-24T09:42:50;33.02;46.18
66722;SHT31;53633;49.932;10.884;2023-08-24T09:45:17;33.42;45.43
66722;SHT31;53633;49.932;10.884;2023-08-24T09:47:50;33.76;45.75
66722;SHT31;53633;49.932;10.884;2023-08-24T09:50:18;33.28;45.36
66722;SHT31;53633;49.932;10.884;2023-08-24T09:52:47;32.87;45.94
66722;SHT31;53633;49.932;10.884;2023-08-24T09:55:16;32.81;46.06
66722;SHT31;53633;49.932;10.884;2023-08-24T09:57:45;33.09;45.73
66722;SHT31;53633;49.932;10.884;2023-08-24T10:00:13;33.25;44.77
66722;SHT31;53633;49.932;10.884;2023-08-24T10:02:45;33.42;43.97
66722;SHT31;53633;49.932;10.884;2023-08-24T10:05:19;33.55;42.93
66722;SHT31;53633;49.932;10.884;2023-08-24T10:08:06;33.70;42.95
66722;SHT31;53633;49.932;10.884;2023-08-24T10:10:35;33.08;43.49
66722;SHT31;53633;49.932;10.884;2023-08-24T10:13:07;33.04;43.83
66722;SHT31;53633;49.932;10.884;2023-08-24T10:15:36;32.80;43.51
66722;SHT31;53633;49.932;10.884;2023-08-24T10:18:05;32.47;44.19
66722;SHT31;53633;49.932;10.884;2023-08-24T10:20:34;32.40;43.65
66722;SHT31;53633;49.932;10.884;2023-08-24T10:23:01;32.17;44.84
66722;SHT31;53633;49.932;10.884;2023-08-24T10:25:31;32.30;44.16
66722;SHT31;53633;49.932;10.884;2023-08-24T10:27:59;31.98;45.17
66722;SHT31;53633;49.932;10.884;2023-08-24T10:30:27;31.92;45.34
66722;SHT31;53633;49.932;10.884;2023-08-24T10:32:54;31.95;46.23
66722;SHT31;53633;49.932;10.884;2023-08-24T10:35:21;31.92;45.56
66722;SHT31;53633;49.932;10.884;2023-08-24T10:37:52;31.95;43.89
66722;SHT31;53633;49.932;10.884;2023-08-24T10:40:31;31.70;45.03
66722;SHT31;53633;49.932;10.884;2023-08-24T10:42:58;31.55;44.84
66722;SHT31;53633;49.932;10.884;2023-08-24T10:45:24;31.33;45.09
66722;SHT31;53633;49.932;10.884;2023-08-24T10:47:52;31.20;45.24
66722;SHT31;53633;49.932;10.884;2023-08-24T10:50:19;31.14;46.04
66722;SHT31;53633;49.932;10.884;2023-08-24T10:52:46;31.26;46.18
66722;SHT31;53633;49.932;10.884;2023-08-24T10:55:25;31.14;45.60
66722;SHT31;53633;49.932;10.884;2023-08-24T10:57:56;31.23;46.36
66722;SHT31;53633;49.932;10.884;2023-08-24T11:00:26;30.58;45.76
66722;SHT31;53633;49.932;10.884;2023-08-24T11:02:53;30.35;46.97
66722;SHT31;53633;49.932;10.884;2023-08-24T11:05:27;30.18;46.05
66722;SHT31;53633;49.932;10.884;2023-08-24T11:07:54;30.14;47.74
66722;SHT31;53633;49.932;10.884;2023-08-24T11:10:23;30.14;48.69
66722;SHT31;53633;49.932;10.884;2023-08-24T11:13:11;30.10;48.71
66722;SHT31;53633;49.932;10.884;2023-08-24T11:15:40;30.14;48.60
66722;SHT31;53633;49.932;10.884;2023-08-24T11:18:14;30.24;48.85
66722;SHT31;53633;49.932;10.884;2023-08-24T11:20:43;30.24;49.19
66722;SHT31;53633;49.932;10.884;2023-08-24T11:23:10;30.20;47.28
66722;SHT31;53633;49.932;10.884;2023-08-24T11:25:38;29.99;45.51
66722;SHT31;53633;49.932;10.884;2023-08-24T11:28:05;29.89;45.78
66722;SHT31;53633;49.932;10.884;2023-08-24T11:30:32;29.87;46.62
66722;SHT31;53633;49.932;10.884;2023-08-24T11:32:59;29.94;47.23
66722;SHT31;53633;49.932;10.884;2023-08-24T11:35:26;29.99;47.76
66722;SHT31;53633;49.932;10.884;2023-08-24T11:37:53;29.80;46.84
66722;SHT31;53633;49.932;10.884;2023-08-24T11:40:20;29.83;46.06
66722;SHT31;53633;49.932;10.884;2023-08-24T11:42:53;29.85;47.12
66722;SHT31;53633;49.932;10.884;2023-08-24T11:45:20;29.83;43.79
66722;SHT31;53633;49.932;10.884;2023-08-24T11:47:47;29.82;43.43
66722;SHT31;53633;49.932;10.884;2023-08-24T11:50:13;29.94;44.47
66722;SHT31;53633;49.932;10.884;2023-08-24T11:52:40;29.94;40.69
66722;SHT31;53633;49.932;10.884;2023-08-24T11:55:08;29.99;41.19
66722;SHT31;53633;49.932;10.884;2023-08-24T11:57:35;29.99;41.43
66722;SHT31;53633;49.932;10.884;2023-08-24T12:00:04;30.07;40.29
66722;SHT31;53633;49.932;10.884;2023-08-24T12:02:31;30.02;40.79
66722;SHT31;53633;49.932;10.884;2023-08-24T12:04:58;29.97;39.96
66722;SHT31;53633;49.932;10.884;2023-08-24T12:07:25;29.89;40.37
66722;SHT31;53633;49.932;10.884;2023-08-24T12:09:52;29.90;41.32
66722;SHT31;53633;49.932;10.884;2023-08-24T12:12:19;30.00;41.47
66722;SHT31;53633;49.932;10.884;2023-08-24T12:14:46;30.04;41.63
66722;SHT31;53633;49.932;10.884;2023-08-24T12:17:15;30.02;42.03
66722;SHT31;53633;49.932;10.884;2023-08-24T12:19:42;30.24;43.41
66722;SHT31;53633;49.932;10.884;2023-08-24T12:22:12;30.28;44.38
66722;SHT31;53633;49.932;10.884;2023-08-24T12:24:43;30.44;44.39
66722;SHT31;53633;49.932;10.884;2023-08-24T12:27:17;30.45;44.40
66722;SHT31;53633;49.932;10.884;2023-08-24T12:29:44;30.55;45.11
66722;SHT31;53633;49.932;10.884;2023-08-24T12:32:11;30.47;44.47
66722;SHT31;53633;49.932;10.884;2023-08-24T12:34:39;30.49;45.15
66722;SHT31;53633;49.932;10.884;2023-08-24T12:37:06;30.52;44.17
66722;SHT31;53633;49.932;10.884;2023-08-24T12:39:35;30.42;44.28
66722;SHT31;53633;49.932;10.884;2023-08-24T12:42:02;30.37;44.60
66722;SHT31;53633;49.932;10.884;2023-08-24T12:44:29;30.44;44.44
66722;SHT31;53633;49.932;10.884;2023-08-24T12:46:56;30.47;43.45
66722;SHT31;53633;49.932;10.884;2023-08-24T12:49:24;30.42;43.69
66722;SHT31;53633;49.932;10.884;2023-08-24T12:51:53;30.55;43.74
66722;SHT31;53633;49.932;10.884;2023-08-24T12:54:20;30.65;44.45
66722;SHT31;53633;49.932;10.884;2023-08-24T12:56:47;30.80;43.42
66722;SHT31;53633;49.932;10.884;2023-08-24T12:59:28;30.79;42.65
66722;SHT31;53633;49.932;10.884;2023-08-24T13:01:55;30.96;43.76
66722;SHT31;53633;49.932;10.884;2023-08-24T13:04:22;31.03;44.27
66722;SHT31;53633;49.932;10.884;2023-08-24T13:06:48;31.02;44.51
66722;SHT31;53633;49.932;10.884;2023-08-24T13:09:17;30.97;45.32
66722;SHT31;53633;49.932;10.884;2023-08-24T13:11:43;31.00;43.95
66722;SHT31;53633;49.932;10.884;2023-08-24T13:14:10;30.93;44.42
66722;SHT31;53633;49.932;10.884;2023-08-24T13:16:37;30.93;45.60
66722;SHT31;53633;49.932;10.884;2023-08-24T13:19:04;30.96;45.12
66722;SHT31;53633;49.932;10.884;2023-08-24T13:21:31;30.95;45.19
66722;SHT31;53633;49.932;10.884;2023-08-24T13:23:57;30.93;44.79
66722;SHT31;53633;49.932;10.884;2023-08-24T13:26:25;30.93;43.84
66722;SHT31;53633;49.932;10.884;2023-08-24T13:28:52;30.79;43.99
66722;SHT31;53633;49.932;10.884;2023-08-24T13:31:19;30.68;44.29
66722;SHT31;53633;49.932;10.884;2023-08-24T13:33:45;30.72;44.82
66722;SHT31;53633;49.932;10.884;2023-08-24T13:36:12;30.68;44.41
66722;SHT31;53633;49.932;10.884;2023-08-24T13:38:39;30.75;45.42
66722;SHT31;53633;49.932;10.884;2023-08-24T13:41:06;30.57;46.12
66722;SHT31;53633;49.932;10.884;2023-08-24T13:43:34;30.54;45.17
66722;SHT31;53633;49.932;10.884;2023-08-24T13:46:00;30.52;46.22
66722;SHT31;53633;49.932;10.884;2023-08-24T13:48:30;30.54;46.13
66722;SHT31;53633;49.932;10.884;2023-08-24T13:50:57;30.52;45.78
66722;SHT31;53633;49.932;10.884;2023-08-24T13:53:24;30.51;46.28
66722;SHT31;53633;49.932;10.884;2023-08-24T13:55:50;30.55;46.25
66722;SHT31;53633;49.932;10.884;2023-08-24T13:58:17;30.55;45.93
66722;SHT31;53633;49.932;10.884;2023-08-24T14:00:45;30.58;45.14
66722;SHT31;53633;49.932;10.884;2023-08-24T14:03:12;30.67;45.39
66722;SHT31;53633;49.932;10.884;2023-08-24T14:05:39;30.65;45.22
66722;SHT31;53633;49.932;10.884;2023-08-24T14:08:06;30.61;43.84
66722;SHT31;53633;49.932;10.884;2023-08-24T14:10:32;30.64;43.18
66722;SHT31;53633;49.932;10.884;2023-08-24T14:12:59;30.64;43.40
66722;SHT31;53633;49.932;10.884;2023-08-24T14:15:26;30.65;43.17
66722;SHT31;53633;49.932;10.884;2023-08-24T14:17:54;30.61;44.18
66722;SHT31;53633;49.932;10.884;2023-08-24T14:20:21;30.52;43.09
66722;SHT31;53633;49.932;10.884;2023-08-24T14:22:47;30.49;42.59
66722;SHT31;53633;49.932;10.884;2023-08-24T14:25:14;30.30;42.34
66722;SHT31;53633;49.932;10.884;2023-08-24T14:27:41;30.23;42.78
66722;SHT31;53633;49.932;10.884;2023-08-24T14:30:13;30.27;41.49
66722;SHT31;53633;49.932;10.884;2023-08-24T14:32:40;30.32;41.83
66722;SHT31;53633;49.932;10.884;2023-08-24T14:35:09;30.35;42.01
66722;SHT31;53633;49.932;10.884;2023-08-24T14:37:35;30.34;42.60
66722;SHT31;53633;49.932;10.884;2023-08-24T14:40:03;30.44;41.92
66722;SHT31;53633;49.932;10.884;2023-08-24T14:42:29;30.47;41.62
66722;SHT31;53633;49.932;10.884;2023-08-24T14:44:56;30.52;42.33
66722;SHT31;53633;49.932;10.884;2023-08-24T14:47:23;30.55;42.26
66722;SHT31;53633;49.932;10.884;2023-08-24T14:49:49;30.51;41.98
66722;SHT31;53633;49.932;10.884;2023-08-24T14:52:17;30.54;42.22
66722;SHT31;53633;49.932;10.884;2023-08-24T14:54:44;30.52;42.20
66722;SHT31;53633;49.932;10.884;2023-08-24T14:57:11;30.55;43.02
66722;SHT31;53633;49.932;10.884;2023-08-24T14:59:37;30.48;44.62
66722;SHT31;53633;49.932;10.884;2023-08-24T15:02:05;30.42;44.68
66722;SHT31;53633;49.932;10.884;2023-08-24T15:04:32;30.47;43.76
66722;SHT31;53633;49.932;10.884;2023-08-24T15:06:59;30.48;43.44
66722;SHT31;53633;49.932;10.884;2023-08-24T15:09:27;30.45;43.70
66722;SHT31;53633;49.932;10.884;2023-08-24T15:11:54;30.45;43.95
66722;SHT31;53633;49.932;10.884;2023-08-24T15:14:20;30.49;43.65
66722;SHT31;53633;49.932;10.884;2023-08-24T15:16:47;30.52;43.17
66722;SHT31;53633;49.932;10.884;2023-08-24T15:19:13;30.51;45.41